Unai, Brazil
Current Conditions -  °F | °C
As of 10:00 PM on Friday 21 Nov 2014 (Local Time) from SBBR Reporting Station
Broken Clouds Broken Clouds  
Wind Chill: 79°   Ceiling: 8000
Heat Index: 81°   Visibility: 6mi
Dew Point: 64°   Wind: 5mph
Humidity: 61%   Direction: 50°NE
Pressure: 30.06"   Gusts: NA
Location:  16.36°S, 46.9°W
Report Text: SBBR 220000Z 05004KT 9999 FEW030 FEW040TCU BKN080 26/18 Q1018
Loading
Personal Weather Stations






























Interactive Weather Map New forecast layout! Learn more

10-Day Weather Forecast

Advertisements
Track Severe Weather on mobile